createdAt,value
2019-02-12T00:01:00.312Z,69.67
2019-02-12T00:03:29.585Z,69.87
2019-02-12T00:05:58.846Z,69.87
2019-02-12T00:08:28.163Z,69.89
2019-02-12T00:10:57.446Z,69.76
2019-02-12T00:13:26.705Z,69.75
2019-02-12T00:15:55.947Z,69.72
2019-02-12T00:18:28.196Z,69.72
2019-02-12T00:20:57.419Z,69.39
2019-02-12T00:23:26.722Z,69.54
2019-02-12T00:25:55.973Z,69.40
2019-02-12T00:28:25.221Z,69.63
2019-02-12T00:30:54.533Z,69.69
2019-02-12T00:33:23.831Z,69.49
2019-02-12T00:35:53.124Z,69.44
2019-02-12T00:38:22.386Z,69.53
2019-02-12T00:40:51.619Z,69.26
2019-02-12T00:43:20.934Z,68.84
2019-02-12T00:45:50.288Z,68.76
2019-02-12T00:48:19.542Z,68.00
2019-02-12T00:50:48.801Z,67.17
2019-02-12T00:53:18.073Z,66.95
2019-02-12T00:55:47.374Z,66.88
2019-02-12T00:58:37.746Z,66.54
2019-02-12T01:01:07.092Z,66.36
2019-02-12T01:03:36.403Z,66.21
2019-02-12T01:06:05.709Z,65.72
2019-02-12T01:08:35.026Z,65.20
2019-02-12T01:11:04.355Z,65.37
2019-02-12T01:13:33.748Z,65.63
2019-02-12T01:16:03.048Z,65.29
2019-02-12T01:18:32.312Z,64.93
2019-02-12T01:21:01.634Z,64.95
2019-02-12T01:23:31.418Z,64.54
2019-02-12T01:26:00.677Z,64.42
2019-02-12T01:28:30.091Z,64.66
2019-02-12T01:30:59.423Z,64.90
2019-02-12T01:33:28.728Z,65.07
2019-02-12T01:35:57.931Z,65.08
2019-02-12T01:38:27.246Z,65.21
2019-02-12T01:40:56.567Z,65.00
2019-02-12T01:43:25.875Z,64.64
2019-02-12T01:45:55.116Z,64.84
2019-02-12T01:48:24.386Z,65.06
2019-02-12T01:50:53.658Z,65.26
2019-02-12T01:53:22.925Z,65.23
2019-02-12T01:55:52.156Z,64.79
2019-02-12T01:58:21.395Z,64.11
2019-02-12T02:00:50.621Z,63.76
2019-02-12T02:03:19.863Z,63.69
2019-02-12T02:05:49.104Z,63.70
2019-02-12T02:08:18.327Z,63.90
2019-02-12T02:10:47.594Z,63.88
2019-02-12T02:13:16.786Z,64.10
2019-02-12T02:15:46.066Z,64.26
2019-02-12T02:18:15.265Z,64.44
2019-02-12T02:20:44.601Z,64.67
2019-02-12T02:23:14.006Z,64.48
2019-02-12T02:25:43.228Z,64.74
2019-02-12T02:28:12.469Z,65.08
2019-02-12T02:30:41.715Z,65.43
2019-02-12T02:33:10.966Z,65.63
2019-02-12T02:35:40.206Z,65.90
2019-02-12T02:38:09.422Z,65.89
2019-02-12T02:40:38.659Z,66.11
2019-02-12T02:43:07.855Z,66.18
2019-02-12T02:45:37.130Z,66.12
2019-02-12T02:48:06.316Z,66.33
2019-02-12T02:50:35.541Z,66.68
2019-02-12T02:53:04.763Z,66.76
2019-02-12T02:55:33.979Z,66.69
2019-02-12T02:58:03.188Z,66.71
2019-02-12T03:03:37.014Z,66.52
2019-02-12T03:06:51.156Z,66.35
2019-02-12T03:09:20.411Z,65.94
2019-02-12T03:11:49.618Z,65.59
2019-02-12T03:14:18.957Z,65.62
2019-02-12T03:16:48.161Z,65.51
2019-02-12T03:19:17.381Z,65.33
2019-02-12T03:21:46.633Z,65.44
2019-02-12T03:24:15.859Z,65.50
2019-02-12T03:26:45.096Z,65.74
2019-02-12T03:29:14.388Z,66.07
2019-02-12T03:31:43.634Z,66.02
2019-02-12T03:34:12.852Z,65.97
2019-02-12T03:36:42.093Z,66.24
2019-02-12T03:39:11.340Z,66.29
2019-02-12T03:41:40.649Z,66.50
2019-02-12T03:44:09.868Z,66.45
2019-02-12T03:46:39.098Z,66.67
2019-02-12T03:49:08.743Z,66.47
2019-02-12T03:51:38.030Z,66.57
2019-02-12T03:54:07.249Z,66.64
2019-02-12T03:56:36.489Z,66.57
2019-02-12T03:59:05.776Z,66.55
2019-02-12T04:01:35.035Z,66.38
2019-02-12T04:04:04.235Z,66.42
2019-02-12T04:06:33.458Z,66.46
2019-02-12T04:09:02.679Z,66.56
2019-02-12T04:11:31.926Z,66.88
2019-02-12T04:14:01.126Z,67.06
2019-02-12T04:16:30.336Z,67.43
2019-02-12T04:18:59.587Z,67.93
2019-02-12T04:21:28.844Z,68.23
2019-02-12T04:23:58.072Z,68.45
2019-02-12T04:26:27.290Z,68.84
2019-02-12T04:28:56.512Z,69.15
2019-02-12T04:31:25.795Z,69.11
2019-02-12T04:33:55.032Z,69.19
2019-02-12T04:36:24.281Z,69.21
2019-02-12T04:38:53.986Z,69.29
2019-02-12T04:41:23.383Z,69.36
2019-02-12T04:43:52.587Z,69.48
2019-02-12T04:46:21.923Z,69.65
2019-02-12T04:48:51.172Z,69.61
2019-02-12T04:51:20.443Z,69.50
2019-02-12T04:53:49.659Z,69.44
2019-02-12T04:56:18.881Z,69.21
2019-02-12T04:58:48.092Z,68.72
2019-02-12T05:01:17.337Z,68.38
2019-02-12T05:03:46.876Z,68.23
2019-02-12T05:06:16.117Z,68.25
2019-02-12T05:09:20.080Z,68.08
2019-02-12T05:12:00.546Z,68.14
2019-02-12T05:14:29.778Z,68.10
2019-02-12T05:16:58.993Z,68.29
2019-02-12T05:19:28.326Z,68.46
2019-02-12T05:21:57.582Z,68.83
2019-02-12T05:24:26.976Z,69.02
2019-02-12T05:26:56.169Z,69.07
2019-02-12T05:29:25.393Z,69.36
2019-02-12T05:31:54.668Z,69.61
2019-02-12T05:34:23.950Z,69.37
2019-02-12T05:36:53.184Z,69.34
2019-02-12T05:39:22.414Z,69.08
2019-02-12T05:41:51.635Z,68.97
2019-02-12T05:44:20.884Z,68.98
2019-02-12T05:46:50.139Z,68.95
2019-02-12T05:49:19.389Z,68.71
2019-02-12T05:51:48.602Z,69.67
2019-02-12T05:54:17.814Z,69.08
2019-02-12T05:56:47.060Z,68.69
2019-02-12T05:59:16.315Z,68.64
2019-02-12T06:01:45.544Z,68.08
2019-02-12T06:04:14.832Z,68.45
2019-02-12T06:06:44.068Z,68.71
2019-02-12T06:09:13.338Z,68.45
2019-02-12T06:11:42.589Z,68.71
2019-02-12T06:14:11.804Z,68.79
2019-02-12T06:16:41.163Z,68.76
2019-02-12T06:19:11.626Z,68.74
2019-02-12T06:21:40.935Z,68.80
2019-02-12T06:24:10.161Z,69.03
2019-02-12T06:26:39.408Z,68.98
2019-02-12T06:29:08.674Z,69.18
2019-02-12T06:31:37.922Z,70.46
2019-02-12T06:34:07.175Z,70.10
2019-02-12T06:36:36.400Z,69.63
2019-02-12T06:39:07.068Z,69.56
2019-02-12T06:41:36.447Z,69.67
2019-02-12T06:44:05.893Z,69.95
2019-02-12T06:46:35.170Z,70.09
2019-02-12T06:49:04.396Z,69.99
2019-02-12T06:51:36.607Z,69.60
2019-02-12T06:54:05.924Z,69.46
2019-02-12T06:56:35.168Z,69.05
2019-02-12T06:59:04.416Z,69.30
2019-02-12T07:01:33.643Z,69.18
2019-02-12T07:04:24.163Z,69.28
2019-02-12T07:07:40.677Z,68.99
2019-02-12T07:10:27.628Z,68.36
2019-02-12T07:13:17.263Z,68.54
2019-02-12T07:16:33.167Z,68.29
2019-02-12T07:19:49.246Z,68.48
2019-02-12T07:23:02.747Z,68.82
2019-02-12T07:26:03.858Z,69.72
2019-02-12T07:32:47.372Z,71.21
2019-02-12T07:36:03.808Z,71.04
2019-02-12T07:39:01.903Z,71.21
2019-02-12T07:41:50.634Z,71.36
2019-02-12T07:44:36.673Z,71.73
2019-02-12T07:47:41.102Z,71.96
2019-02-12T07:50:57.724Z,71.92
2019-02-12T07:53:49.105Z,71.59
2019-02-12T07:56:47.540Z,71.45
2019-02-12T07:59:31.768Z,71.61
2019-02-12T08:03:03.553Z,71.43
2019-02-12T08:06:00.088Z,70.97
2019-02-12T08:09:20.213Z,70.17
2019-02-12T08:12:20.411Z,69.83
2019-02-12T08:15:33.671Z,69.74
2019-02-12T08:18:12.138Z,69.84
2019-02-12T08:21:10.157Z,69.59
2019-02-12T08:24:21.259Z,69.07
2019-02-12T08:27:46.483Z,68.25
2019-02-12T08:30:56.802Z,68.30
2019-02-12T08:34:10.558Z,67.66
2019-02-12T08:37:11.983Z,67.21
2019-02-12T08:39:55.432Z,66.28
2019-02-12T08:42:43.674Z,66.33
2019-02-12T08:46:00.209Z,65.83
2019-02-12T08:48:55.401Z,65.50
2019-02-12T08:51:59.466Z,64.66
2019-02-12T08:55:05.684Z,63.79
2019-02-12T08:58:00.066Z,64.20
2019-02-12T09:01:11.859Z,63.75
2019-02-12T09:04:22.654Z,62.61
2019-02-12T09:10:54.727Z,62.48
2019-02-12T09:13:56.240Z,61.64
2019-02-12T09:17:09.610Z,61.28
2019-02-12T09:20:04.559Z,60.49
2019-02-12T09:23:29.577Z,60.64
2019-02-12T09:26:35.874Z,60.73
2019-02-12T09:29:25.181Z,60.56
2019-02-12T09:32:14.890Z,62.03
2019-02-12T09:35:02.984Z,61.29
2019-02-12T09:38:18.704Z,60.99
2019-02-12T09:41:12.233Z,60.89
2019-02-12T09:44:18.092Z,60.10
2019-02-12T09:47:08.141Z,59.36
2019-02-12T09:50:14.333Z,59.41
2019-02-12T09:53:15.874Z,59.47
2019-02-12T09:56:32.603Z,60.06
2019-02-12T09:59:19.654Z,61.11
2019-02-12T10:02:02.242Z,63.19
2019-02-12T10:05:03.583Z,65.55
2019-02-12T10:07:53.317Z,67.36
2019-02-12T10:10:53.049Z,68.64
2019-02-12T10:13:57.205Z,69.42
2019-02-12T10:16:57.772Z,69.94
2019-02-12T10:19:45.014Z,70.19
2019-02-12T10:22:42.105Z,70.17
2019-02-12T10:25:47.436Z,69.94
2019-02-12T10:28:48.541Z,69.79
2019-02-12T10:31:43.667Z,68.46
2019-02-12T10:34:12.985Z,67.50
2019-02-12T10:36:42.417Z,66.00
2019-02-12T10:39:13.307Z,65.53
2019-02-12T10:41:42.624Z,64.19
2019-02-12T10:44:11.878Z,63.20
2019-02-12T10:46:41.217Z,62.97
2019-02-12T10:49:10.441Z,62.53
2019-02-12T10:51:39.715Z,62.09
2019-02-12T10:54:08.974Z,61.35
2019-02-12T10:56:38.260Z,59.07
2019-02-12T10:59:07.538Z,61.36
2019-02-12T11:01:37.065Z,60.29
2019-02-12T11:04:07.095Z,58.85
2019-02-12T11:06:36.759Z,58.38
2019-02-12T11:09:06.882Z,58.12
2019-02-12T11:11:36.875Z,56.19
2019-02-12T11:14:09.878Z,55.58
2019-02-12T11:16:40.307Z,54.59
2019-02-12T11:19:09.859Z,53.87
2019-02-12T11:21:41.162Z,54.26
2019-02-12T11:24:10.820Z,55.52
2019-02-12T11:26:42.420Z,52.70
2019-02-12T11:29:12.166Z,52.07
2019-02-12T11:31:42.980Z,51.85
2019-02-12T11:34:13.951Z,51.68
2019-02-12T11:36:44.618Z,51.44
2019-02-12T11:39:14.012Z,51.12
2019-02-12T11:41:43.656Z,51.29
2019-02-12T11:44:13.453Z,51.33
2019-02-12T11:46:43.190Z,50.01
2019-02-12T11:49:12.693Z,49.47
2019-02-12T11:51:44.534Z,50.78
2019-02-12T11:54:14.329Z,51.08
2019-02-12T11:56:43.902Z,50.27
2019-02-12T11:59:13.245Z,50.78
2019-02-12T12:01:43.000Z,51.57
2019-02-12T12:04:12.939Z,51.50
2019-02-12T12:06:42.711Z,51.72
2019-02-12T12:09:12.287Z,51.63
2019-02-12T12:11:42.378Z,51.90
2019-02-12T12:14:16.555Z,52.29
2019-02-12T12:16:46.869Z,51.77
2019-02-12T12:19:16.689Z,52.27
2019-02-12T12:21:46.985Z,50.95
2019-02-12T12:24:17.176Z,50.52
2019-02-12T12:26:47.138Z,50.77
2019-02-12T12:29:17.157Z,49.86
2019-02-12T12:31:52.434Z,51.05
2019-02-12T12:34:22.929Z,50.61
2019-02-12T12:36:52.903Z,50.51
2019-02-12T12:39:22.678Z,50.37
2019-02-12T12:41:52.418Z,50.81
2019-02-12T12:44:21.943Z,50.82
2019-02-12T12:46:51.545Z,49.91
2019-02-12T12:49:21.098Z,50.47
2019-02-12T12:51:50.568Z,50.05
2019-02-12T12:54:19.903Z,50.42
2019-02-12T12:56:51.561Z,51.07
2019-02-12T12:59:21.577Z,51.65
2019-02-12T13:01:51.034Z,51.07
2019-02-12T13:04:21.116Z,50.79
2019-02-12T13:07:41.899Z,50.90
2019-02-12T13:10:13.884Z,50.72
2019-02-12T13:12:43.731Z,50.73
2019-02-12T13:15:13.653Z,48.46
2019-02-12T13:17:43.482Z,48.14
2019-02-12T13:20:14.318Z,46.97
2019-02-12T13:22:53.757Z,46.46
2019-02-12T13:25:23.801Z,46.93
2019-02-12T13:27:53.183Z,46.84
2019-02-12T13:30:22.668Z,46.94
2019-02-12T13:33:49.776Z,46.86
2019-02-12T13:36:19.409Z,46.45
2019-02-12T13:38:49.065Z,47.08
2019-02-12T13:41:19.960Z,47.34
2019-02-12T13:43:49.561Z,48.03
2019-02-12T13:46:19.591Z,48.98
2019-02-12T13:48:49.434Z,49.14
2019-02-12T13:51:19.663Z,49.46
2019-02-12T13:53:49.439Z,49.38
2019-02-12T13:56:19.420Z,50.14
2019-02-12T13:58:49.497Z,50.21
2019-02-12T14:01:19.352Z,49.92
2019-02-12T14:03:49.460Z,50.04
2019-02-12T14:06:19.043Z,49.89
2019-02-12T14:08:49.172Z,49.08
2019-02-12T14:11:18.987Z,48.60
2019-02-12T14:13:48.679Z,48.56
2019-02-12T14:16:18.180Z,48.93
2019-02-12T14:18:47.933Z,49.20
2019-02-12T14:21:17.383Z,49.85
2019-02-12T14:23:46.972Z,50.62
2019-02-12T14:26:18.806Z,51.30
2019-02-12T14:29:21.568Z,51.54
2019-02-12T14:31:53.219Z,51.72
2019-02-12T14:34:22.614Z,52.04
2019-02-12T14:36:52.007Z,51.93
2019-02-12T14:39:21.305Z,52.32
2019-02-12T14:41:50.541Z,52.30
2019-02-12T14:44:19.796Z,51.89
2019-02-12T14:46:49.158Z,51.16
2019-02-12T14:49:18.597Z,51.30
2019-02-12T14:51:47.880Z,51.57
2019-02-12T14:54:17.107Z,51.35
2019-02-12T14:56:46.530Z,51.44
2019-02-12T14:59:15.929Z,51.55
2019-02-12T15:01:45.312Z,51.60
2019-02-12T15:04:14.639Z,51.88
2019-02-12T15:09:48.179Z,52.60
2019-02-12T15:12:17.514Z,53.01
2019-02-12T15:14:46.932Z,53.12
2019-02-12T15:17:17.508Z,53.58
2019-02-12T15:19:46.765Z,53.62
2019-02-12T15:22:15.998Z,53.77
2019-02-12T15:24:45.467Z,53.95
2019-02-12T15:27:14.873Z,53.95
2019-02-12T15:29:44.585Z,54.20
2019-02-12T15:33:11.019Z,54.08
2019-02-12T15:35:40.346Z,54.58
2019-02-12T15:38:09.617Z,54.65
2019-02-12T15:40:38.900Z,55.38
2019-02-12T15:46:36.237Z,55.98
2019-02-12T15:49:05.536Z,56.36
2019-02-12T15:51:34.779Z,55.91
2019-02-12T15:54:59.141Z,55.95
2019-02-12T15:57:29.564Z,56.38
2019-02-12T15:59:58.919Z,56.60
2019-02-12T16:02:28.265Z,56.87
2019-02-12T16:04:57.606Z,57.06
2019-02-12T16:07:28.501Z,57.46
2019-02-12T16:09:57.896Z,56.87
2019-02-12T16:12:28.519Z,56.86
2019-02-12T16:14:59.750Z,57.21
2019-02-12T16:17:28.933Z,57.56
2019-02-12T16:20:00.894Z,57.88
2019-02-12T16:22:30.415Z,57.76
2019-02-12T16:25:00.023Z,58.28
2019-02-12T16:27:32.399Z,58.29
2019-02-12T16:30:02.837Z,58.54
2019-02-12T16:32:32.288Z,58.86
2019-02-12T16:35:03.628Z,59.07
2019-02-12T16:37:32.908Z,59.15
2019-02-12T16:40:02.230Z,59.04
2019-02-12T16:42:31.774Z,59.31
2019-02-12T16:45:04.560Z,59.63
2019-02-12T16:47:33.887Z,60.21
2019-02-12T16:50:03.262Z,60.23
2019-02-12T16:52:32.861Z,60.31
2019-02-12T16:55:02.087Z,60.61
2019-02-12T16:57:31.381Z,60.70
2019-02-12T17:00:00.728Z,61.00
2019-02-12T17:02:30.072Z,61.03
2019-02-12T17:04:59.425Z,61.09
2019-02-12T17:07:28.822Z,61.40
2019-02-12T17:10:06.316Z,61.71
2019-02-12T17:12:35.647Z,61.51
2019-02-12T17:15:05.067Z,61.93
2019-02-12T17:17:34.332Z,61.75
2019-02-12T17:23:38.141Z,62.03
2019-02-12T17:26:07.398Z,62.46
2019-02-12T17:29:10.070Z,63.01
2019-02-12T17:31:39.383Z,62.42
2019-02-12T17:34:08.764Z,63.01
2019-02-12T17:36:38.066Z,62.77
2019-02-12T17:39:07.720Z,63.53
2019-02-12T17:41:37.058Z,63.29
2019-02-12T17:44:06.287Z,63.21
2019-02-12T17:46:36.789Z,63.02
2019-02-12T17:49:08.005Z,63.15
2019-02-12T17:51:37.368Z,63.93
2019-02-12T17:54:07.251Z,63.76
2019-02-12T17:56:37.360Z,63.92
2019-02-12T17:59:07.839Z,63.87
2019-02-12T18:01:40.064Z,64.08
2019-02-12T18:04:09.389Z,64.02
2019-02-12T18:06:39.565Z,64.35
2019-02-12T18:09:09.765Z,64.80
2019-02-12T18:11:39.057Z,65.41
2019-02-12T18:14:08.301Z,65.06
2019-02-12T18:16:40.469Z,65.05
2019-02-12T18:19:09.864Z,65.24
2019-02-12T18:21:39.163Z,65.62
2019-02-12T18:24:08.503Z,65.63
2019-02-12T18:26:38.114Z,65.90
2019-02-12T18:29:58.693Z,66.30
2019-02-12T18:32:28.343Z,65.93
2019-02-12T18:34:57.620Z,66.26
2019-02-12T18:37:26.955Z,66.53
2019-02-12T18:40:26.301Z,66.53
2019-02-12T18:42:55.599Z,66.61
2019-02-12T18:45:25.370Z,66.78
2019-02-12T18:47:54.893Z,66.45
2019-02-12T18:50:24.574Z,66.63
2019-02-12T18:52:54.160Z,66.79
2019-02-12T18:55:23.504Z,66.91
2019-02-12T18:57:53.661Z,66.96
2019-02-12T19:00:23.898Z,66.82
2019-02-12T19:02:53.291Z,66.90
2019-02-12T19:05:22.889Z,67.22
2019-02-12T19:07:52.367Z,67.27
2019-02-12T19:10:21.822Z,67.76
2019-02-12T19:12:51.368Z,67.62
2019-02-12T19:15:20.787Z,67.63
2019-02-12T19:17:57.256Z,67.93
2019-02-12T19:20:26.780Z,67.97
2019-02-12T19:22:56.802Z,68.15
2019-02-12T19:25:26.308Z,68.31
2019-02-12T19:27:56.913Z,68.74
2019-02-12T19:30:27.113Z,68.73
2019-02-12T19:32:56.685Z,68.60
2019-02-12T19:35:26.566Z,68.95
2019-02-12T19:37:56.277Z,68.83
2019-02-12T19:40:26.480Z,68.92
2019-02-12T19:42:56.895Z,69.03
2019-02-12T19:45:27.327Z,68.97
2019-02-12T19:47:57.898Z,69.16
2019-02-12T19:50:28.541Z,69.09
2019-02-12T19:52:59.105Z,69.38
2019-02-12T19:55:29.863Z,69.34
2019-02-12T19:58:00.244Z,69.43
2019-02-12T20:00:30.722Z,69.48
2019-02-12T20:03:01.111Z,69.63
2019-02-12T20:05:31.355Z,69.79
2019-02-12T20:08:01.581Z,69.68
2019-02-12T20:10:32.065Z,70.05
2019-02-12T20:13:03.234Z,70.17
2019-02-12T20:15:33.118Z,70.36
2019-02-12T20:18:58.225Z,70.14
2019-02-12T20:21:28.805Z,69.96
2019-02-12T20:24:46.683Z,69.94
2019-02-12T20:27:17.897Z,69.95
2019-02-12T20:29:47.748Z,70.51
2019-02-12T20:32:17.751Z,70.69
2019-02-12T20:34:48.101Z,70.29
2019-02-12T20:37:18.207Z,70.20
2019-02-12T20:39:48.069Z,70.53
2019-02-12T20:42:17.637Z,70.43
2019-02-12T20:44:48.524Z,70.88
2019-02-12T20:47:18.170Z,70.93
2019-02-12T20:49:47.828Z,70.73
2019-02-12T20:52:17.281Z,70.86
2019-02-12T20:55:23.080Z,71.12
2019-02-12T20:57:52.423Z,71.01
2019-02-12T21:00:48.894Z,70.77
2019-02-12T21:03:18.516Z,71.14
2019-02-12T21:05:48.285Z,70.62
2019-02-12T21:08:20.535Z,70.78
2019-02-12T21:10:50.040Z,70.68
2019-02-12T21:13:19.570Z,70.69
2019-02-12T21:15:49.242Z,70.68
2019-02-12T21:18:18.799Z,70.34
2019-02-12T21:20:48.561Z,70.23
2019-02-12T21:23:18.136Z,70.48
2019-02-12T21:25:47.806Z,70.22
2019-02-12T21:28:20.610Z,70.32
2019-02-12T21:30:50.145Z,70.55
2019-02-12T21:33:19.870Z,70.62
2019-02-12T21:35:49.372Z,70.67
2019-02-12T21:38:20.333Z,70.52
2019-02-12T21:40:49.981Z,70.69
2019-02-12T21:43:22.520Z,70.76
2019-02-12T21:45:52.047Z,70.65
2019-02-12T21:48:21.421Z,70.74
2019-02-12T21:50:50.775Z,70.90
2019-02-12T21:53:20.053Z,70.95
2019-02-12T21:55:49.390Z,71.42
2019-02-12T21:58:18.704Z,71.21
2019-02-12T22:00:50.028Z,71.23
2019-02-12T22:03:19.055Z,71.39
2019-02-12T22:05:48.462Z,71.37
2019-02-12T22:08:17.805Z,71.24
2019-02-12T22:10:47.280Z,71.39
2019-02-12T22:13:18.591Z,71.62
2019-02-12T22:15:47.660Z,71.83
2019-02-12T22:18:17.040Z,71.96
2019-02-12T22:20:46.345Z,71.84
2019-02-12T22:23:15.683Z,71.76
2019-02-12T22:25:48.832Z,71.60
2019-02-12T22:28:18.263Z,71.80
2019-02-12T22:30:47.614Z,71.78
2019-02-12T22:33:17.015Z,71.63
2019-02-12T22:35:46.342Z,71.79
2019-02-12T22:38:15.713Z,71.82
2019-02-12T22:40:45.127Z,71.45
2019-02-12T22:43:14.785Z,71.53
2019-02-12T22:45:44.677Z,71.30
2019-02-12T22:48:14.147Z,71.61
2019-02-12T22:50:44.003Z,71.65
2019-02-12T22:53:13.651Z,71.53
2019-02-12T22:55:43.004Z,71.53
2019-02-12T22:58:12.359Z,71.55
2019-02-12T23:00:56.888Z,71.47
2019-02-12T23:03:26.659Z,71.25
2019-02-12T23:05:55.995Z,71.48
2019-02-12T23:08:25.398Z,71.48
2019-02-12T23:10:56.297Z,71.90
2019-02-12T23:13:25.585Z,71.82
2019-02-12T23:15:54.981Z,71.69
2019-02-12T23:18:24.261Z,71.74
2019-02-12T23:20:53.550Z,71.57
2019-02-12T23:23:22.916Z,71.68
2019-02-12T23:25:52.300Z,71.75
2019-02-12T23:28:21.546Z,71.73
2019-02-12T23:30:50.872Z,71.62
2019-02-12T23:33:20.147Z,71.57
2019-02-12T23:35:49.413Z,72.05
2019-02-12T23:38:18.707Z,72.18
2019-02-12T23:40:48.148Z,72.46
2019-02-12T23:43:17.423Z,72.26
2019-02-12T23:45:46.716Z,72.26
2019-02-12T23:48:16.086Z,72.50
2019-02-12T23:50:45.416Z,72.57
2019-02-12T23:53:14.653Z,72.41
2019-02-12T23:55:43.983Z,72.61
2019-02-12T23:58:13.240Z,72.64
